sensor_id;sensor_type;location;lat;lon;timestamp;pressure;altitude;pressure_sealevel;temperature;humidity
49040;BME280;36811;49.732;13.402;2023-02-12T00:02:15;99544.84;;;4.87;81.35
49040;BME280;36811;49.732;13.402;2023-02-12T00:04:41;99554.22;;;4.89;81.50
49040;BME280;36811;49.732;13.402;2023-02-12T00:07:06;99553.88;;;4.92;81.72
49040;BME280;36811;49.732;13.402;2023-02-12T00:09:32;99552.56;;;4.88;81.50
49040;BME280;36811;49.732;13.402;2023-02-12T00:11:58;99557.50;;;4.91;81.42
49040;BME280;36811;49.732;13.402;2023-02-12T00:14:24;99561.88;;;4.99;81.64
49040;BME280;36811;49.732;13.402;2023-02-12T00:16:49;99558.06;;;5.01;81.19
49040;BME280;36811;49.732;13.402;2023-02-12T00:19:15;99560.06;;;4.99;81.05
49040;BME280;36811;49.732;13.402;2023-02-12T00:21:41;99560.75;;;4.93;81.50
49040;BME280;36811;49.732;13.402;2023-02-12T00:24:06;99559.78;;;4.94;81.37
49040;BME280;36811;49.732;13.402;2023-02-12T00:26:32;99573.31;;;4.91;81.30
49040;BME280;36811;49.732;13.402;2023-02-12T00:28:58;99575.78;;;4.93;81.33
49040;BME280;36811;49.732;13.402;2023-02-12T00:31:26;99574.97;;;4.92;81.36
49040;BME280;36811;49.732;13.402;2023-02-12T00:33:52;99569.06;;;4.90;81.26
49040;BME280;36811;49.732;13.402;2023-02-12T00:36:20;99570.03;;;4.89;81.28
49040;BME280;36811;49.732;13.402;2023-02-12T00:38:50;99566.75;;;4.87;81.34
49040;BME280;36811;49.732;13.402;2023-02-12T00:41:16;99564.75;;;4.89;81.64
49040;BME280;36811;49.732;13.402;2023-02-12T00:43:42;99570.03;;;4.89;81.66
49040;BME280;36811;49.732;13.402;2023-02-12T00:46:08;99572.66;;;4.89;81.78
49040;BME280;36811;49.732;13.402;2023-02-12T00:48:34;99566.88;;;4.94;81.87
49040;BME280;36811;49.732;13.402;2023-02-12T00:51:01;99576.97;;;4.90;81.79
49040;BME280;36811;49.732;13.402;2023-02-12T00:53:27;99574.63;;;4.95;81.33
49040;BME280;36811;49.732;13.402;2023-02-12T00:55:53;99575.78;;;4.93;81.50
49040;BME280;36811;49.732;13.402;2023-02-12T00:58:19;99574.44;;;4.97;81.47
49040;BME280;36811;49.732;13.402;2023-02-12T01:00:45;99578.53;;;4.99;81.73
49040;BME280;36811;49.732;13.402;2023-02-12T01:03:11;99572.28;;;5.00;81.72
49040;BME280;36811;49.732;13.402;2023-02-12T01:05:36;99585.09;;;5.03;81.41
49040;BME280;36811;49.732;13.402;2023-02-12T01:08:03;99574.53;;;5.03;81.92
49040;BME280;36811;49.732;13.402;2023-02-12T01:10:29;99574.53;;;5.03;81.94
49040;BME280;36811;49.732;13.402;2023-02-12T01:12:55;99573.44;;;4.98;81.85
49040;BME280;36811;49.732;13.402;2023-02-12T01:15:21;99575.91;;;4.99;82.03
49040;BME280;36811;49.732;13.402;2023-02-12T01:17:47;99576.44;;;4.95;82.39
49040;BME280;36811;49.732;13.402;2023-02-12T01:20:19;99578.78;;;4.90;82.38
49040;BME280;36811;49.732;13.402;2023-02-12T01:22:45;99578.94;;;4.88;82.56
49040;BME280;36811;49.732;13.402;2023-02-12T01:25:11;99587.50;;;4.90;82.43
49040;BME280;36811;49.732;13.402;2023-02-12T01:27:37;99593.41;;;4.92;82.33
49040;BME280;36811;49.732;13.402;2023-02-12T01:30:04;99591.41;;;4.94;82.36
49040;BME280;36811;49.732;13.402;2023-02-12T01:32:30;99601.78;;;4.96;82.71
49040;BME280;36811;49.732;13.402;2023-02-12T01:34:56;99605.88;;;4.98;82.51
49040;BME280;36811;49.732;13.402;2023-02-12T01:37:21;99591.38;;;5.02;81.94
49040;BME280;36811;49.732;13.402;2023-02-12T01:39:47;99592.19;;;5.03;81.76
49040;BME280;36811;49.732;13.402;2023-02-12T01:42:14;99608.81;;;5.03;82.12
49040;BME280;36811;49.732;13.402;2023-02-12T01:47:41;99594.25;;;4.93;82.74
49040;BME280;36811;49.732;13.402;2023-02-12T01:50:12;99589.31;;;4.90;82.49
49040;BME280;36811;49.732;13.402;2023-02-12T01:52:40;99594.41;;;4.91;82.81
49040;BME280;36811;49.732;13.402;2023-02-12T01:55:09;99587.97;;;4.94;82.91
49040;BME280;36811;49.732;13.402;2023-02-12T01:57:39;99578.72;;;4.98;82.44
49040;BME280;36811;49.732;13.402;2023-02-12T02:00:09;99576.72;;;5.00;82.69
49040;BME280;36811;49.732;13.402;2023-02-12T02:02:38;99571.59;;;4.98;82.85
49040;BME280;36811;49.732;13.402;2023-02-12T02:05:05;99581.16;;;4.99;83.01
49040;BME280;36811;49.732;13.402;2023-02-12T02:07:31;99579.16;;;5.01;82.93
49040;BME280;36811;49.732;13.402;2023-02-12T02:09:58;99573.91;;;5.01;83.36
49040;BME280;36811;49.732;13.402;2023-02-12T02:12:25;99584.09;;;5.04;83.08
49040;BME280;36811;49.732;13.402;2023-02-12T02:15:10;99591.03;;;5.05;82.84
49040;BME280;36811;49.732;13.402;2023-02-12T02:17:53;99587.03;;;5.09;82.72
49040;BME280;36811;49.732;13.402;2023-02-12T02:37:50;99590.00;;;5.29;82.46
49040;BME280;36811;49.732;13.402;2023-02-12T02:40:26;99583.09;;;5.28;82.50
49040;BME280;36811;49.732;13.402;2023-02-12T02:43:10;99574.00;;;5.31;82.65
49040;BME280;36811;49.732;13.402;2023-02-12T02:45:44;99587.19;;;5.31;82.24
49040;BME280;36811;49.732;13.402;2023-02-12T02:50:41;99597.75;;;5.31;82.42
49040;BME280;36811;49.732;13.402;2023-02-12T02:53:31;99587.84;;;5.33;82.53
49040;BME280;36811;49.732;13.402;2023-02-12T02:56:01;99583.09;;;5.28;82.81
49040;BME280;36811;49.732;13.402;2023-02-12T02:58:31;99577.19;;;5.26;83.15
49040;BME280;36811;49.732;13.402;2023-02-12T03:01:17;99586.56;;;5.29;82.77
49040;BME280;36811;49.732;13.402;2023-02-12T03:04:04;99583.09;;;5.28;83.07
49040;BME280;36811;49.732;13.402;2023-02-12T03:07:02;99584.28;;;5.26;82.91
49040;BME280;36811;49.732;13.402;2023-02-12T03:09:40;99587.44;;;5.21;83.46
49040;BME280;36811;49.732;13.402;2023-02-12T03:12:16;99583.50;;;5.17;83.39
49040;BME280;36811;49.732;13.402;2023-02-12T03:14:51;99582.81;;;5.23;83.79
49040;BME280;36811;49.732;13.402;2023-02-12T03:17:32;99585.25;;;5.25;83.29
49040;BME280;36811;49.732;13.402;2023-02-12T03:20:08;99585.91;;;5.27;83.13
49040;BME280;36811;49.732;13.402;2023-02-12T03:22:38;99581.28;;;5.29;83.36
49040;BME280;36811;49.732;13.402;2023-02-12T03:25:14;99590.19;;;5.28;83.37
49040;BME280;36811;49.732;13.402;2023-02-12T03:27:54;99588.53;;;5.27;84.08
49040;BME280;36811;49.732;13.402;2023-02-12T03:30:24;99582.09;;;5.29;83.44
49040;BME280;36811;49.732;13.402;2023-02-12T03:33:43;99585.19;;;5.33;83.65
49040;BME280;36811;49.732;13.402;2023-02-12T03:36:15;99574.34;;;5.28;83.80
49040;BME280;36811;49.732;13.402;2023-02-12T03:38:57;99585.75;;;5.28;83.32
49040;BME280;36811;49.732;13.402;2023-02-12T03:41:38;99589.50;;;5.34;83.94
49040;BME280;36811;49.732;13.402;2023-02-12T03:44:21;99595.41;;;5.36;83.29
49040;BME280;36811;49.732;13.402;2023-02-12T03:47:04;99592.41;;;5.39;83.13
49040;BME280;36811;49.732;13.402;2023-02-12T03:49:48;99597.31;;;5.42;83.04
49040;BME280;36811;49.732;13.402;2023-02-12T03:52:17;99603.63;;;5.41;83.45
49040;BME280;36811;49.732;13.402;2023-02-12T03:54:43;99617.63;;;5.41;83.44
49040;BME280;36811;49.732;13.402;2023-02-12T03:57:19;99619.72;;;5.46;83.24
49040;BME280;36811;49.732;13.402;2023-02-12T03:59:47;99622.66;;;5.51;82.90
49040;BME280;36811;49.732;13.402;2023-02-12T04:02:15;99620.03;;;5.51;82.89
49040;BME280;36811;49.732;13.402;2023-02-12T04:04:43;99622.53;;;5.44;82.64
49040;BME280;36811;49.732;13.402;2023-02-12T04:07:10;99628.00;;;5.43;83.25
49040;BME280;36811;49.732;13.402;2023-02-12T04:09:37;99628.97;;;5.42;83.10
49040;BME280;36811;49.732;13.402;2023-02-12T04:17:50;99633.81;;;5.38;82.93
49040;BME280;36811;49.732;13.402;2023-02-12T04:23:15;99646.66;;;5.41;83.30
49040;BME280;36811;49.732;13.402;2023-02-12T04:28:51;99648.88;;;5.30;83.30
49040;BME280;36811;49.732;13.402;2023-02-12T04:39:23;99644.13;;;5.48;82.79
49040;BME280;36811;49.732;13.402;2023-02-12T04:41:50;99640.91;;;5.38;83.06
49040;BME280;36811;49.732;13.402;2023-02-12T04:44:27;99645.06;;;5.32;83.36
49040;BME280;36811;49.732;13.402;2023-02-12T04:46:53;99649.50;;;5.32;83.35
49040;BME280;36811;49.732;13.402;2023-02-12T04:49:20;99647.53;;;5.34;83.34
49040;BME280;36811;49.732;13.402;2023-02-12T04:51:47;99650.88;;;5.28;83.43
49040;BME280;36811;49.732;13.402;2023-02-12T04:54:14;99652.88;;;5.26;83.53
49040;BME280;36811;49.732;13.402;2023-02-12T04:56:40;99661.47;;;5.20;84.05
49040;BME280;36811;49.732;13.402;2023-02-12T04:59:06;99658.16;;;5.26;83.63
49040;BME280;36811;49.732;13.402;2023-02-12T05:01:35;99660.75;;;5.34;83.49
49040;BME280;36811;49.732;13.402;2023-02-12T05:04:01;99666.81;;;5.34;83.13
49040;BME280;36811;49.732;13.402;2023-02-12T05:06:27;99672.91;;;5.35;83.28
49040;BME280;36811;49.732;13.402;2023-02-12T05:08:55;99678.03;;;5.36;83.36
49040;BME280;36811;49.732;13.402;2023-02-12T05:11:22;99678.91;;;5.29;83.05
49040;BME280;36811;49.732;13.402;2023-02-12T05:13:48;99692.19;;;5.12;83.51
49040;BME280;36811;49.732;13.402;2023-02-12T05:16:15;99685.06;;;5.21;84.17
49040;BME280;36811;49.732;13.402;2023-02-12T05:18:41;99675.97;;;5.24;83.87
49040;BME280;36811;49.732;13.402;2023-02-12T05:21:07;99680.81;;;5.12;84.43
49040;BME280;36811;49.732;13.402;2023-02-12T05:23:35;99679.00;;;5.12;84.74
49040;BME280;36811;49.732;13.402;2023-02-12T05:26:04;99686.09;;;5.12;84.59
49040;BME280;36811;49.732;13.402;2023-02-12T05:28:29;99684.28;;;5.12;84.28
49040;BME280;36811;49.732;13.402;2023-02-12T05:31:04;99695.81;;;5.11;84.88
49040;BME280;36811;49.732;13.402;2023-02-12T05:33:30;99694.84;;;5.12;84.42
49040;BME280;36811;49.732;13.402;2023-02-12T05:36:14;99692.19;;;5.12;84.53
49040;BME280;36811;49.732;13.402;2023-02-12T05:38:39;99699.81;;;5.07;84.46
49040;BME280;36811;49.732;13.402;2023-02-12T05:41:11;99694.38;;;5.01;84.77
49040;BME280;36811;49.732;13.402;2023-02-12T05:43:38;99687.59;;;5.06;84.99
49040;BME280;36811;49.732;13.402;2023-02-12T05:46:04;99695.69;;;5.05;84.91
49040;BME280;36811;49.732;13.402;2023-02-12T05:48:32;99696.53;;;5.05;85.25
49040;BME280;36811;49.732;13.402;2023-02-12T05:53:31;99708.06;;;5.04;85.08
49040;BME280;36811;49.732;13.402;2023-02-12T05:58:36;99707.06;;;5.05;84.89
49040;BME280;36811;49.732;13.402;2023-02-12T06:01:08;99704.06;;;5.08;85.23
49040;BME280;36811;49.732;13.402;2023-02-12T06:03:34;99706.38;;;5.11;85.28
49040;BME280;36811;49.732;13.402;2023-02-12T06:06:00;99704.03;;;5.17;84.52
49040;BME280;36811;49.732;13.402;2023-02-12T06:08:25;99708.84;;;5.13;84.55
49040;BME280;36811;49.732;13.402;2023-02-12T06:10:51;99712.94;;;5.16;84.71
49040;BME280;36811;49.732;13.402;2023-02-12T06:13:16;99712.63;;;5.19;84.62
49040;BME280;36811;49.732;13.402;2023-02-12T06:15:42;99711.91;;;5.25;84.31
49040;BME280;36811;49.732;13.402;2023-02-12T06:18:07;99712.25;;;5.22;84.54
49040;BME280;36811;49.732;13.402;2023-02-12T06:20:33;99718.19;;;5.24;84.17
49040;BME280;36811;49.732;13.402;2023-02-12T06:22:58;99739.16;;;5.17;84.01
49040;BME280;36811;49.732;13.402;2023-02-12T06:25:24;99740.16;;;5.16;84.60
49040;BME280;36811;49.732;13.402;2023-02-12T06:27:50;99739.94;;;5.26;84.43
49040;BME280;36811;49.732;13.402;2023-02-12T06:30:15;99738.94;;;5.27;84.59
49040;BME280;36811;49.732;13.402;2023-02-12T06:32:41;99737.59;;;5.31;84.31
49040;BME280;36811;49.732;13.402;2023-02-12T06:35:07;99737.13;;;5.27;84.39
49040;BME280;36811;49.732;13.402;2023-02-12T06:37:32;99746.72;;;5.20;84.62
49040;BME280;36811;49.732;13.402;2023-02-12T06:40:01;99751.50;;;5.17;84.65
49040;BME280;36811;49.732;13.402;2023-02-12T06:42:27;99742.97;;;5.14;85.11
49040;BME280;36811;49.732;13.402;2023-02-12T06:44:53;99754.81;;;5.19;84.67
49040;BME280;36811;49.732;13.402;2023-02-12T06:47:18;99757.56;;;5.25;84.70
49040;BME280;36811;49.732;13.402;2023-02-12T06:49:44;99759.53;;;5.31;84.36
49040;BME280;36811;49.732;13.402;2023-02-12T06:52:09;99758.38;;;5.34;84.22
49040;BME280;36811;49.732;13.402;2023-02-12T06:54:35;99759.47;;;5.39;84.19
49040;BME280;36811;49.732;13.402;2023-02-12T06:57:01;99765.41;;;5.41;83.69
49040;BME280;36811;49.732;13.402;2023-02-12T06:59:26;99768.50;;;5.45;83.79
49040;BME280;36811;49.732;13.402;2023-02-12T07:01:52;99773.75;;;5.53;83.64
49040;BME280;36811;49.732;13.402;2023-02-12T07:04:17;99773.09;;;5.51;82.86
49040;BME280;36811;49.732;13.402;2023-02-12T07:06:43;99773.69;;;5.61;83.34
49040;BME280;36811;49.732;13.402;2023-02-12T07:09:08;99774.28;;;5.71;83.02
49040;BME280;36811;49.732;13.402;2023-02-12T07:11:35;99778.41;;;5.73;82.42
49040;BME280;36811;49.732;13.402;2023-02-12T07:14:00;99784.81;;;5.79;82.29
49040;BME280;36811;49.732;13.402;2023-02-12T07:16:26;99790.53;;;5.83;82.24
49040;BME280;36811;49.732;13.402;2023-02-12T07:18:52;99782.47;;;5.84;82.37
49040;BME280;36811;49.732;13.402;2023-02-12T07:21:19;99784.13;;;5.85;82.05
49040;BME280;36811;49.732;13.402;2023-02-12T07:23:50;99789.72;;;5.82;82.14
49040;BME280;36811;49.732;13.402;2023-02-12T07:26:16;99785.25;;;5.91;82.12
49040;BME280;36811;49.732;13.402;2023-02-12T07:28:42;99787.97;;;5.97;81.45
49040;BME280;36811;49.732;13.402;2023-02-12T07:31:13;99784.69;;;5.95;81.26
49040;BME280;36811;49.732;13.402;2023-02-12T07:33:40;99802.25;;;5.88;81.66
49040;BME280;36811;49.732;13.402;2023-02-12T07:36:09;99784.75;;;5.87;82.23
49040;BME280;36811;49.732;13.402;2023-02-12T07:38:36;99801.28;;;5.89;81.68
49040;BME280;36811;49.732;13.402;2023-02-12T07:41:36;99800.06;;;5.69;82.22
49040;BME280;36811;49.732;13.402;2023-02-12T07:44:05;99799.88;;;5.70;82.48
49040;BME280;36811;49.732;13.402;2023-02-12T07:46:38;99798.97;;;5.86;82.01
49040;BME280;36811;49.732;13.402;2023-02-12T07:49:06;99800.56;;;5.95;81.72
49040;BME280;36811;49.732;13.402;2023-02-12T07:51:33;99791.63;;;5.96;81.62
49040;BME280;36811;49.732;13.402;2023-02-12T07:54:00;99802.06;;;5.90;81.80
49040;BME280;36811;49.732;13.402;2023-02-12T07:56:28;99807.19;;;5.91;81.70
49040;BME280;36811;49.732;13.402;2023-02-12T07:59:03;99796.91;;;5.96;81.83
49040;BME280;36811;49.732;13.402;2023-02-12T08:01:34;99802.78;;;6.06;81.58
49040;BME280;36811;49.732;13.402;2023-02-12T08:04:06;99805.72;;;6.11;81.47
49040;BME280;36811;49.732;13.402;2023-02-12T08:06:36;99802.72;;;6.14;80.94
49040;BME280;36811;49.732;13.402;2023-02-12T08:09:05;99801.25;;;6.12;81.00
49040;BME280;36811;49.732;13.402;2023-02-12T08:11:32;99798.44;;;6.13;80.95
49040;BME280;36811;49.732;13.402;2023-02-12T08:13:58;99800.44;;;6.11;81.16
49040;BME280;36811;49.732;13.402;2023-02-12T08:16:26;99805.94;;;6.24;80.76
49040;BME280;36811;49.732;13.402;2023-02-12T08:18:54;99812.78;;;6.33;80.37
49040;BME280;36811;49.732;13.402;2023-02-12T08:21:22;99807.91;;;6.45;80.41
49040;BME280;36811;49.732;13.402;2023-02-12T08:23:49;99812.41;;;6.59;79.77
49040;BME280;36811;49.732;13.402;2023-02-12T08:26:17;99810.78;;;6.73;79.55
49040;BME280;36811;49.732;13.402;2023-02-12T08:28:46;99811.13;;;6.70;79.00
49040;BME280;36811;49.732;13.402;2023-02-12T08:31:18;99818.44;;;6.68;78.86
49040;BME280;36811;49.732;13.402;2023-02-12T08:33:46;99815.59;;;6.69;78.76
49040;BME280;36811;49.732;13.402;2023-02-12T08:36:14;99814.16;;;6.81;78.95
49040;BME280;36811;49.732;13.402;2023-02-12T08:38:41;99820.63;;;6.93;78.29
49040;BME280;36811;49.732;13.402;2023-02-12T08:41:09;99817.53;;;7.04;78.04
49040;BME280;36811;49.732;13.402;2023-02-12T08:43:37;99829.38;;;7.09;77.90
49040;BME280;36811;49.732;13.402;2023-02-12T08:46:04;99828.72;;;7.21;77.61
49040;BME280;36811;49.732;13.402;2023-02-12T08:48:30;99827.09;;;7.35;77.10
49040;BME280;36811;49.732;13.402;2023-02-12T08:51:01;99822.97;;;7.47;76.45
49040;BME280;36811;49.732;13.402;2023-02-12T08:53:27;99836.16;;;7.61;76.46
49040;BME280;36811;49.732;13.402;2023-02-12T08:55:52;99835.88;;;7.71;75.98
49040;BME280;36811;49.732;13.402;2023-02-12T08:58:18;99834.81;;;7.65;75.36
49040;BME280;36811;49.732;13.402;2023-02-12T09:00:43;99837.75;;;7.41;76.25
49040;BME280;36811;49.732;13.402;2023-02-12T09:03:09;99836.03;;;7.48;76.14
49040;BME280;36811;49.732;13.402;2023-02-12T09:05:38;99842.03;;;7.57;75.60
49040;BME280;36811;49.732;13.402;2023-02-12T09:08:05;99841.06;;;7.43;75.49
49040;BME280;36811;49.732;13.402;2023-02-12T09:10:30;99844.44;;;7.37;75.60
49040;BME280;36811;49.732;13.402;2023-02-12T09:12:56;99846.63;;;7.34;76.14
49040;BME280;36811;49.732;13.402;2023-02-12T09:15:22;99846.44;;;7.35;76.03
49040;BME280;36811;49.732;13.402;2023-02-12T09:17:47;99850.66;;;7.30;76.13
49040;BME280;36811;49.732;13.402;2023-02-12T09:20:13;99842.72;;;7.30;76.25
49040;BME280;36811;49.732;13.402;2023-02-12T09:22:38;99856.78;;;7.30;75.99
49040;BME280;36811;49.732;13.402;2023-02-12T09:25:05;99859.31;;;7.38;76.28
49040;BME280;36811;49.732;13.402;2023-02-12T09:27:31;99855.81;;;7.52;75.85
49040;BME280;36811;49.732;13.402;2023-02-12T09:29:56;99859.56;;;7.58;75.23
49040;BME280;36811;49.732;13.402;2023-02-12T09:32:22;99863.88;;;7.44;75.58
49040;BME280;36811;49.732;13.402;2023-02-12T09:34:47;99867.59;;;7.50;75.66
49040;BME280;36811;49.732;13.402;2023-02-12T09:37:13;99862.31;;;7.50;75.62
49040;BME280;36811;49.732;13.402;2023-02-12T09:39:38;99860.75;;;7.55;75.61
49040;BME280;36811;49.732;13.402;2023-02-12T09:42:14;99870.75;;;7.75;75.28
49040;BME280;36811;49.732;13.402;2023-02-12T09:53:03;99856.53;;;8.60;72.91
49040;BME280;36811;49.732;13.402;2023-02-12T09:55:31;99868.34;;;8.58;72.44
49040;BME280;36811;49.732;13.402;2023-02-12T09:58:09;99869.09;;;8.73;72.63
49040;BME280;36811;49.732;13.402;2023-02-12T10:00:37;99868.09;;;8.74;71.93
49040;BME280;36811;49.732;13.402;2023-02-12T10:03:12;99870.84;;;8.59;71.88
49040;BME280;36811;49.732;13.402;2023-02-12T10:06:10;99870.13;;;8.72;72.25
49040;BME280;36811;49.732;13.402;2023-02-12T10:17:13;99875.63;;;9.32;71.04
49040;BME280;36811;49.732;13.402;2023-02-12T10:27:53;99863.38;;;9.79;69.64
49040;BME280;36811;49.732;13.402;2023-02-12T10:30:38;99866.66;;;9.81;68.98
49040;BME280;36811;49.732;13.402;2023-02-12T10:33:19;99871.91;;;9.61;69.49
49040;BME280;36811;49.732;13.402;2023-02-12T10:35:54;99865.47;;;9.49;69.62
49040;BME280;36811;49.732;13.402;2023-02-12T10:38:31;99868.72;;;9.85;69.54
49040;BME280;36811;49.732;13.402;2023-02-12T10:41:00;99870.53;;;9.85;68.73
49040;BME280;36811;49.732;13.402;2023-02-12T10:43:27;99863.59;;;9.84;68.75
49040;BME280;36811;49.732;13.402;2023-02-12T10:45:54;99859.72;;;9.99;68.71
49040;BME280;36811;49.732;13.402;2023-02-12T10:48:22;99857.75;;;10.14;68.36
49040;BME280;36811;49.732;13.402;2023-02-12T10:51:10;99866.81;;;10.40;67.88
49040;BME280;36811;49.732;13.402;2023-02-12T10:53:43;99863.94;;;10.41;67.41
49040;BME280;36811;49.732;13.402;2023-02-12T10:56:18;99858.63;;;10.35;67.45
49040;BME280;36811;49.732;13.402;2023-02-12T10:58:54;99858.44;;;10.56;66.93
49040;BME280;36811;49.732;13.402;2023-02-12T11:01:38;99859.84;;;10.84;67.23
49040;BME280;36811;49.732;13.402;2023-02-12T11:07:03;99854.66;;;11.29;65.45
49040;BME280;36811;49.732;13.402;2023-02-12T11:09:40;99855.03;;;11.39;64.90
49040;BME280;36811;49.732;13.402;2023-02-12T11:14:52;99851.81;;;11.81;64.49
49040;BME280;36811;49.732;13.402;2023-02-12T11:17:38;99854.56;;;12.06;63.80
49040;BME280;36811;49.732;13.402;2023-02-12T11:20:21;99846.44;;;11.88;63.92
49040;BME280;36811;49.732;13.402;2023-02-12T11:22:59;99851.38;;;12.22;63.41
49040;BME280;36811;49.732;13.402;2023-02-12T11:25:28;99857.38;;;12.42;62.77
49040;BME280;36811;49.732;13.402;2023-02-12T11:28:24;99851.28;;;12.35;61.48
49040;BME280;36811;49.732;13.402;2023-02-12T11:30:59;99852.03;;;12.42;62.52
49040;BME280;36811;49.732;13.402;2023-02-12T11:33:34;99858.03;;;12.62;61.46
49040;BME280;36811;49.732;13.402;2023-02-12T11:38:37;99848.13;;;12.45;61.48
49040;BME280;36811;49.732;13.402;2023-02-12T11:43:44;99849.22;;;12.87;61.15
49040;BME280;36811;49.732;13.402;2023-02-12T11:46:18;99845.56;;;12.81;60.77
49040;BME280;36811;49.732;13.402;2023-02-12T11:48:45;99850.88;;;13.12;60.29
49040;BME280;36811;49.732;13.402;2023-02-12T11:51:23;99850.09;;;13.05;59.84
49040;BME280;36811;49.732;13.402;2023-02-12T11:53:52;99853.53;;;13.12;60.02
49040;BME280;36811;49.732;13.402;2023-02-12T11:56:20;99847.53;;;12.67;60.36
49040;BME280;36811;49.732;13.402;2023-02-12T11:58:47;99841.59;;;12.41;61.20
49040;BME280;36811;49.732;13.402;2023-02-12T12:01:21;99855.81;;;11.97;61.18
49040;BME280;36811;49.732;13.402;2023-02-12T12:03:59;99842.63;;;12.40;61.98
49040;BME280;36811;49.732;13.402;2023-02-12T12:07:10;99831.63;;;12.79;60.97
49040;BME280;36811;49.732;13.402;2023-02-12T12:09:45;99836.16;;;12.79;59.94
49040;BME280;36811;49.732;13.402;2023-02-12T12:12:22;99839.31;;;12.69;60.41
49040;BME280;36811;49.732;13.402;2023-02-12T12:15:01;99840.81;;;12.83;60.24
49040;BME280;36811;49.732;13.402;2023-02-12T12:17:59;99840.00;;;12.83;60.02
49040;BME280;36811;49.732;13.402;2023-02-12T12:20:54;99833.53;;;12.72;59.29
49040;BME280;36811;49.732;13.402;2023-02-12T12:23:30;99834.00;;;12.62;59.89
49040;BME280;36811;49.732;13.402;2023-02-12T12:26:07;99838.75;;;12.60;60.16
49040;BME280;36811;49.732;13.402;2023-02-12T12:31:19;99845.69;;;12.43;61.23
49040;BME280;36811;49.732;13.402;2023-02-12T12:45:24;99830.34;;;12.32;60.93
49040;BME280;36811;49.732;13.402;2023-02-12T12:48:10;99825.16;;;12.13;61.10
49040;BME280;36811;49.732;13.402;2023-02-12T12:59:23;99824.53;;;11.79;61.77
49040;BME280;36811;49.732;13.402;2023-02-12T13:13:00;99824.03;;;10.61;63.58
49040;BME280;36811;49.732;13.402;2023-02-12T13:15:53;99819.97;;;10.52;64.14
49040;BME280;36811;49.732;13.402;2023-02-12T13:18:27;99819.34;;;10.69;64.12
49040;BME280;36811;49.732;13.402;2023-02-12T13:24:06;99817.66;;;10.95;63.57
49040;BME280;36811;49.732;13.402;2023-02-12T13:26:44;99818.84;;;10.99;63.45
49040;BME280;36811;49.732;13.402;2023-02-12T13:29:25;99815.19;;;11.00;63.62
49040;BME280;36811;49.732;13.402;2023-02-12T13:31:58;99813.06;;;11.21;63.31
49040;BME280;36811;49.732;13.402;2023-02-12T13:34:28;99818.09;;;10.85;63.59
49040;BME280;36811;49.732;13.402;2023-02-12T13:36:56;99817.25;;;10.98;63.93
49040;BME280;36811;49.732;13.402;2023-02-12T13:39:42;99813.91;;;11.09;63.83
49040;BME280;36811;49.732;13.402;2023-02-12T13:47:38;99821.44;;;11.31;63.45
49040;BME280;36811;49.732;13.402;2023-02-12T13:50:30;99819.19;;;11.35;62.92
49040;BME280;36811;49.732;13.402;2023-02-12T13:53:45;99821.22;;;11.39;62.85
49040;BME280;36811;49.732;13.402;2023-02-12T13:58:46;99816.66;;;11.53;62.73
49040;BME280;36811;49.732;13.402;2023-02-12T14:01:39;99810.25;;;11.61;62.72
49040;BME280;36811;49.732;13.402;2023-02-12T14:04:37;99816.59;;;11.66;61.89
49040;BME280;36811;49.732;13.402;2023-02-12T14:07:10;99804.72;;;11.69;62.21
49040;BME280;36811;49.732;13.402;2023-02-12T14:09:40;99809.22;;;11.68;62.60
49040;BME280;36811;49.732;13.402;2023-02-12T14:12:10;99806.34;;;11.70;62.20
49040;BME280;36811;49.732;13.402;2023-02-12T14:14:42;99819.84;;;11.75;61.27
49040;BME280;36811;49.732;13.402;2023-02-12T14:27:54;99810.72;;;11.44;62.03
49040;BME280;36811;49.732;13.402;2023-02-12T14:30:34;99812.00;;;11.35;62.41
49040;BME280;36811;49.732;13.402;2023-02-12T14:35:37;99810.22;;;11.16;62.53
49040;BME280;36811;49.732;13.402;2023-02-12T14:46:53;99811.06;;;11.04;62.99
49040;BME280;36811;49.732;13.402;2023-02-12T14:49:37;99807.63;;;10.90;63.27
49040;BME280;36811;49.732;13.402;2023-02-12T14:54:50;99816.03;;;10.74;64.10
49040;BME280;36811;49.732;13.402;2023-02-12T14:57:34;99813.38;;;10.61;63.93
49040;BME280;36811;49.732;13.402;2023-02-12T15:02:54;99816.47;;;10.51;64.73
49040;BME280;36811;49.732;13.402;2023-02-12T15:05:36;99816.06;;;10.41;64.95
49040;BME280;36811;49.732;13.402;2023-02-12T15:08:32;99812.38;;;10.49;64.73
49040;BME280;36811;49.732;13.402;2023-02-12T15:12:02;99804.19;;;10.44;64.47
49040;BME280;36811;49.732;13.402;2023-02-12T15:16:53;99817.41;;;9.91;65.87
49040;BME280;36811;49.732;13.402;2023-02-12T15:19:39;99810.56;;;9.63;66.89
49040;BME280;36811;49.732;13.402;2023-02-12T15:22:21;99815.44;;;9.46;67.29
49040;BME280;36811;49.732;13.402;2023-02-12T15:24:48;99809.69;;;9.42;67.79
49040;BME280;36811;49.732;13.402;2023-02-12T15:27:14;99815.97;;;9.35;67.68
49040;BME280;36811;49.732;13.402;2023-02-12T15:29:42;99811.34;;;9.43;68.00
49040;BME280;36811;49.732;13.402;2023-02-12T15:32:17;99816.66;;;9.43;67.70
49040;BME280;36811;49.732;13.402;2023-02-12T15:34:47;99815.00;;;9.49;68.02
49040;BME280;36811;49.732;13.402;2023-02-12T15:37:22;99807.69;;;9.51;68.00
49040;BME280;36811;49.732;13.402;2023-02-12T15:39:50;99809.03;;;9.34;68.79
49040;BME280;36811;49.732;13.402;2023-02-12T15:42:35;99805.97;;;9.37;69.06
49040;BME280;36811;49.732;13.402;2023-02-12T15:47:41;99807.88;;;9.09;70.05
49040;BME280;36811;49.732;13.402;2023-02-12T15:50:16;99808.38;;;8.91;70.15
49040;BME280;36811;49.732;13.402;2023-02-12T15:52:44;99809.50;;;8.75;71.11
49040;BME280;36811;49.732;13.402;2023-02-12T15:55:16;99820.72;;;8.71;70.80
49040;BME280;36811;49.732;13.402;2023-02-12T15:57:48;99806.59;;;8.64;71.83
49040;BME280;36811;49.732;13.402;2023-02-12T16:02:51;99808.28;;;8.44;72.13
49040;BME280;36811;49.732;13.402;2023-02-12T16:05:18;99812.50;;;8.38;72.05